Time;durP1;ratioP1;P1;durP2;ratioP2;P2;SDS_P1;SDS_P2;PMS_P1;PMS_P2;Temp;Humidity;BMP_temperature;BMP_pressure;BME280_temperature;BME280_humidity;BME280_pressure;Samples;Min_cycle;Max_cycle;Signal;HPM_P1;HPM_P2
2022/11/19 00:01:28;;;;;;;15.20;10.40;;;;;;;-0.81;59.71;99791.98;104916;1299;139287;-85
2022/11/19 00:03:59;;;;;;;15.00;9.70;;;;;;;-0.86;60.24;99799.27;105006;1292;105519;-83
2022/11/19 00:06:29;;;;;;;17.20;10.90;;;;;;;-0.82;60.16;99798.42;105051;1292;94390;-82
2022/11/19 00:09:00;;;;;;;15.80;10.50;;;;;;;-0.83;60.47;99798.23;105000;1298;137749;-82
2022/11/19 00:14:19;;;;;;;15.90;10.90;;;;;;;-0.79;60.58;99803.67;104916;1283;140072;-82
2022/11/19 00:16:50;;;;;;;16.50;11.00;;;;;;;-0.76;60.56;99804.75;105015;1292;107555;-82
2022/11/19 00:19:20;;;;;;;15.70;10.00;;;;;;;-0.79;60.57;99806.83;104986;1299;139505;-81
2022/11/19 00:21:51;;;;;;;16.90;10.80;;;;;;;-0.76;60.61;99811.03;105120;1299;93556;-83
2022/11/19 00:24:23;;;;;;;16.10;10.20;;;;;;;-0.69;60.29;99807.61;105093;1297;108053;-81
2022/11/19 00:26:54;;;;;;;15.80;10.60;;;;;;;-0.72;60.06;99809.85;105003;1293;139445;-84
2022/11/19 00:29:26;;;;;;;18.10;11.70;;;;;;;-0.78;60.34;99813.09;105027;1299;107319;-82
2022/11/19 00:31:56;;;;;;;17.40;11.50;;;;;;;-0.87;60.24;99812.48;105013;1292;138993;-81
2022/11/19 00:34:27;;;;;;;17.70;11.60;;;;;;;-0.92;60.91;99815.58;105123;1294;92956;-86
2022/11/19 00:36:57;;;;;;;16.70;11.20;;;;;;;-0.87;60.96;99818.08;105020;1294;139929;-82
2022/11/19 00:39:28;;;;;;;16.60;10.30;;;;;;;-0.80;61.14;99819.35;105062;1291;96976;-82
2022/11/19 00:41:59;;;;;;;16.10;10.80;;;;;;;-0.73;60.92;99822.23;105077;1292;107584;-82
2022/11/19 00:44:29;;;;;;;15.20;10.40;;;;;;;-0.71;60.50;99820.84;104999;1299;139412;-83
2022/11/19 00:47:06;;;;;;;15.90;10.70;;;;;;;-0.75;59.91;99824.28;105156;1290;93150;-83
2022/11/19 00:49:37;;;;;;;16.20;11.30;;;;;;;-0.76;60.00;99820.45;105016;1292;140482;-82
2022/11/19 00:52:08;;;;;;;16.00;11.10;;;;;;;-0.70;60.58;99815.79;105142;1298;98090;-81
2022/11/19 00:54:39;;;;;;;16.50;11.20;;;;;;;-0.68;60.03;99815.98;105080;1298;107491;-81
2022/11/19 00:57:10;;;;;;;16.20;11.10;;;;;;;-0.70;60.47;99816.15;105101;1297;93869;-84
2022/11/19 00:59:41;;;;;;;15.90;10.60;;;;;;;-0.71;60.01;99822.77;105095;1294;93288;-83
2022/11/19 01:02:12;;;;;;;14.40;9.90;;;;;;;-0.73;59.91;99822.39;104961;1294;138690;-82
2022/11/19 01:04:42;;;;;;;14.90;9.80;;;;;;;-0.77;59.87;99828.80;105089;1291;97067;-83
2022/11/19 01:07:13;;;;;;;14.90;10.00;;;;;;;-0.93;59.44;99827.59;104951;1277;139264;-83
2022/11/19 01:09:46;;;;;;;17.20;10.90;;;;;;;-1.04;59.63;99839.66;105100;1292;93215;-83
2022/11/19 01:12:16;;;;;;;15.60;10.90;;;;;;;-1.01;60.01;99836.21;105073;1290;92911;-85
2022/11/19 01:14:47;;;;;;;18.50;11.80;;;;;;;-0.95;60.46;99837.66;104965;1297;138712;-82
2022/11/19 01:17:18;;;;;;;17.20;11.70;;;;;;;-0.89;60.97;99837.73;105105;1293;98074;-83
2022/11/19 01:19:49;;;;;;;17.60;11.60;;;;;;;-0.86;60.64;99841.26;104953;1284;138593;-83
2022/11/19 01:22:19;;;;;;;16.60;11.00;;;;;;;-0.82;60.73;99844.60;105086;1293;93278;-83
2022/11/19 01:24:50;;;;;;;16.70;11.50;;;;;;;-0.80;60.61;99846.36;105009;1294;140896;-82
2022/11/19 01:27:21;;;;;;;16.70;11.50;;;;;;;-0.79;61.04;99842.54;104953;1301;108878;-83
2022/11/19 01:29:51;;;;;;;17.30;11.70;;;;;;;-0.77;61.17;99847.95;105085;1294;97880;-83
2022/11/19 01:32:22;;;;;;;17.60;11.50;;;;;;;-0.85;60.51;99844.23;105004;1293;140415;-87
2022/11/19 01:34:53;;;;;;;16.90;11.00;;;;;;;-0.88;60.63;99844.89;105116;1297;93241;-83
2022/11/19 01:37:24;;;;;;;16.70;11.00;;;;;;;-0.85;61.44;99846.31;105005;1292;140635;-85
2022/11/19 01:39:55;;;;;;;16.30;10.90;;;;;;;-0.78;60.55;99850.91;105095;1297;108557;-84
2022/11/19 01:45:27;;;;;;;16.50;11.00;;;;;;;-0.91;60.18;99850.95;105075;1290;107510;-87
2022/11/19 01:48:01;;;;;;;15.20;10.60;;;;;;;-0.98;60.79;99850.88;105091;1289;92885;-83
2022/11/19 01:50:36;;;;;;;16.50;11.30;;;;;;;-0.91;60.87;99847.11;104976;1298;138771;-83
2022/11/19 01:53:08;;;;;;;17.60;11.10;;;;;;;-0.89;60.16;99842.09;105073;1290;109542;-84
2022/11/19 01:55:41;;;;;;;16.30;10.70;;;;;;;-0.93;60.50;99845.54;104991;1299;139687;-82
2022/11/19 01:58:15;;;;;;;16.10;11.30;;;;;;;-0.93;60.46;99839.95;105030;1298;107696;-82
2022/11/19 02:00:45;;;;;;;17.20;11.10;;;;;;;-0.88;61.01;99840.70;104975;1292;140709;-82
2022/11/19 02:03:18;;;;;;;15.70;10.50;;;;;;;-0.85;59.99;99844.92;105070;1291;93541;-84
2022/11/19 02:05:49;;;;;;;15.50;9.80;;;;;;;-0.87;60.27;99844.21;105078;1292;108433;-83
2022/11/19 02:08:40;;;;;;;14.50;10.30;;;;;;;-0.98;58.74;99847.91;104931;1297;140346;-82
2022/11/19 02:11:54;;;;;;;15.70;10.40;;;;;;;-1.08;59.98;99853.89;105057;1294;107634;-83
2022/11/19 02:14:38;;;;;;;16.30;10.50;;;;;;;-1.10;60.04;99856.83;104802;1299;139094;-84
2022/11/19 02:17:17;;;;;;;17.00;11.20;;;;;;;-1.00;60.67;99856.09;105080;1298;93245;-83
2022/11/19 02:20:12;;;;;;;17.00;11.70;;;;;;;-0.91;59.93;99854.79;104991;1297;139420;-83
2022/11/19 02:23:25;;;;;;;16.10;11.50;;;;;;;-0.88;59.61;99844.89;105105;1285;96061;-87
2022/11/19 02:26:16;;;;;;;16.70;11.40;;;;;;;-0.88;59.86;99840.53;104578;1292;141044;-83
2022/11/19 02:28:52;;;;;;;16.20;11.20;;;;;;;-0.84;60.18;99836.91;105068;1298;93098;-83
2022/11/19 02:31:29;;;;;;;15.90;10.00;;;;;;;-0.83;60.11;99842.85;104955;1299;140671;-82
2022/11/19 02:34:04;;;;;;;16.50;10.40;;;;;;;-0.78;60.62;99844.48;105044;1305;108480;-82
2022/11/19 02:36:40;;;;;;;16.10;10.70;;;;;;;-0.71;60.11;99848.38;105106;1297;98052;-83
2022/11/19 02:39:18;;;;;;;16.80;10.90;;;;;;;-0.67;59.70;99847.20;104878;1297;139318;-84
2022/11/19 02:41:55;;;;;;;15.90;11.00;;;;;;;-0.70;59.93;99843.34;105083;1293;93259;-82
2022/11/19 02:47:22;;;;;;;15.30;10.90;;;;;;;-0.82;60.61;99838.51;105111;1297;108459;-84
2022/11/19 02:49:57;;;;;;;15.80;10.70;;;;;;;-0.89;60.94;99837.55;104954;1282;140693;-83
2022/11/19 02:52:28;;;;;;;15.10;10.60;;;;;;;-0.99;61.14;99843.02;105068;1298;107515;-84
2022/11/19 02:54:59;;;;;;;15.90;10.20;;;;;;;-1.07;61.77;99842.75;104945;1292;142138;-84
2022/11/19 02:57:30;;;;;;;15.70;10.30;;;;;;;-1.09;61.86;99845.88;105108;1289;93297;-83
2022/11/19 03:05:45;;;;;;;16.30;11.00;;;;;;;-1.11;61.75;99857.86;104841;1292;107156;-84
2022/11/19 03:08:16;;;;;;;16.30;11.40;;;;;;;-1.13;62.01;99860.45;104947;1290;138728;-82
2022/11/19 03:10:57;;;;;;;15.40;10.40;;;;;;;-1.10;62.12;99865.55;105098;1297;94045;-84
2022/11/19 03:16:42;;;;;;;15.60;10.70;;;;;;;-1.00;61.75;99874.55;105090;1297;98073;-85
2022/11/19 03:19:34;;;;;;;15.40;10.60;;;;;;;-1.03;61.35;99878.70;104952;1297;139220;-86
2022/11/19 03:22:10;;;;;;;16.10;10.60;;;;;;;-1.04;61.58;99879.21;105085;1302;92971;-83
2022/11/19 03:24:45;;;;;;;15.50;10.70;;;;;;;-1.06;61.53;99884.41;105089;1298;92851;-83
2022/11/19 03:27:19;;;;;;;16.40;10.10;;;;;;;-1.06;61.73;99881.96;105067;1297;109291;-82
2022/11/19 03:29:54;;;;;;;16.00;10.50;;;;;;;-1.03;61.67;99883.92;105087;1295;98011;-82
2022/11/19 03:32:29;;;;;;;15.30;9.70;;;;;;;-1.06;61.85;99887.19;104974;1290;141131;-83
2022/11/19 03:35:06;;;;;;;16.20;10.80;;;;;;;-1.04;61.19;99889.33;105032;1297;93222;-83
2022/11/19 03:37:40;;;;;;;16.90;11.50;;;;;;;-1.00;61.10;99890.23;105015;1297;140129;-83
2022/11/19 03:40:15;;;;;;;14.30;10.00;;;;;;;-0.94;61.13;99891.17;105071;1298;108349;-82
2022/11/19 03:42:50;;;;;;;16.10;10.60;;;;;;;-0.92;61.42;99891.02;105074;1298;98015;-82
2022/11/19 03:45:24;;;;;;;15.80;10.50;;;;;;;-0.95;61.53;99890.64;105070;1293;107348;-83
2022/11/19 03:47:57;;;;;;;15.30;10.40;;;;;;;-0.96;61.03;99897.08;105043;1291;93596;-86
2022/11/19 03:50:32;;;;;;;15.70;10.50;;;;;;;-0.97;61.35;99898.80;104980;1297;140317;-84
2022/11/19 03:53:03;;;;;;;15.00;9.90;;;;;;;-0.99;61.13;99902.09;105084;1291;108160;-83
2022/11/19 03:55:40;;;;;;;15.30;9.80;;;;;;;-0.96;61.58;99904.20;104969;1300;138899;-84
2022/11/19 03:58:12;;;;;;;14.60;10.00;;;;;;;-0.95;61.16;99909.29;105063;1298;107580;-86
2022/11/19 04:00:43;;;;;;;18.50;11.50;;;;;;;-0.93;60.81;99914.89;105075;1297;93260;-84
2022/11/19 04:03:14;;;;;;;19.20;11.50;;;;;;;-0.97;61.36;99915.36;105020;1298;226574;-83
2022/11/19 04:05:45;;;;;;;19.20;12.10;;;;;;;-1.03;61.73;99917.37;105114;1292;108369;-83
2022/11/19 04:08:15;;;;;;;17.30;12.00;;;;;;;-1.06;62.20;99921.17;105009;1292;139200;-84
2022/11/19 04:10:46;;;;;;;16.00;11.50;;;;;;;-1.02;62.46;99922.95;105089;1291;107173;-83
2022/11/19 04:13:17;;;;;;;18.70;12.40;;;;;;;-0.93;62.71;99918.73;104975;1297;138943;-83
2022/11/19 04:15:47;;;;;;;18.90;12.80;;;;;;;-0.90;62.96;99920.84;105087;1292;93437;-85
2022/11/19 04:18:18;;;;;;;18.20;12.30;;;;;;;-0.87;63.15;99922.98;105103;1298;106454;-83
2022/11/19 04:20:49;;;;;;;19.20;12.70;;;;;;;-0.84;63.01;99921.44;105003;1292;138642;-85
2022/11/19 04:23:19;;;;;;;17.80;11.50;;;;;;;-0.84;63.16;99924.77;105088;1291;107353;-84
2022/11/19 04:25:50;;;;;;;18.00;12.00;;;;;;;-0.85;63.10;99923.18;104950;1297;138822;-86
2022/11/19 04:28:21;;;;;;;16.90;11.90;;;;;;;-0.79;63.42;99925.16;105111;1297;93248;-84
2022/11/19 04:30:51;;;;;;;17.70;11.80;;;;;;;-0.80;63.39;99923.23;104901;1290;138408;-84
2022/11/19 04:33:22;;;;;;;16.80;11.60;;;;;;;-0.84;63.21;99922.84;105064;1289;99237;-85
2022/11/19 04:35:52;;;;;;;17.50;12.30;;;;;;;-0.87;63.41;99925.59;105071;1295;107690;-83
2022/11/19 04:38:23;;;;;;;17.50;12.10;;;;;;;-0.84;63.55;99931.38;104992;1299;140139;-86
2022/11/19 04:40:54;;;;;;;16.40;11.20;;;;;;;-0.80;63.45;99931.93;105129;1291;93348;-89
2022/11/19 04:43:24;;;;;;;17.60;11.80;;;;;;;-0.72;63.57;99932.39;105011;1294;139243;-83
2022/11/19 04:45:55;;;;;;;17.80;12.00;;;;;;;-0.69;63.38;99933.30;105104;1285;98491;-85
2022/11/19 04:48:26;;;;;;;18.50;12.10;;;;;;;-0.69;63.21;99934.87;105092;1292;107481;-83
2022/11/19 04:50:56;;;;;;;18.20;12.90;;;;;;;-0.68;63.79;99933.84;104988;1300;138325;-83
2022/11/19 04:53:27;;;;;;;17.50;12.20;;;;;;;-0.73;63.78;99937.95;105112;1292;93689;-82
2022/11/19 04:55:59;;;;;;;16.60;11.30;;;;;;;-0.74;63.82;99942.48;104991;1292;139326;-84
2022/11/19 04:58:29;;;;;;;17.60;12.30;;;;;;;-0.71;63.92;99943.05;105117;1294;97970;-83
2022/11/19 05:01:00;;;;;;;18.10;12.30;;;;;;;-0.65;64.13;99938.94;104988;1293;137866;-84
2022/11/19 05:03:31;;;;;;;18.60;12.30;;;;;;;-0.61;64.05;99942.98;105132;1295;94224;-83
2022/11/19 05:06:01;;;;;;;19.80;12.70;;;;;;;-0.61;63.43;99946.64;105144;1297;93280;-83
2022/11/19 05:08:32;;;;;;;18.00;11.70;;;;;;;-0.61;63.69;99942.45;104997;1290;138462;-83
2022/11/19 05:11:02;;;;;;;19.10;12.50;;;;;;;-0.62;63.40;99939.48;105103;1298;98501;-84
2022/11/19 05:13:33;;;;;;;17.90;13.00;;;;;;;-0.59;63.48;99934.98;104984;1292;139634;-82
2022/11/19 05:16:05;;;;;;;20.30;14.70;;;;;;;-0.58;63.60;99932.73;105057;1292;94908;-83
2022/11/19 05:18:36;;;;;;;18.60;14.20;;;;;;;-0.57;63.86;99930.14;105084;1290;93321;-82
2022/11/19 05:21:08;;;;;;;20.80;14.30;;;;;;;-0.55;63.75;99929.63;105008;1292;139865;-82
2022/11/19 05:23:39;;;;;;;20.30;14.10;;;;;;;-0.54;63.66;99934.70;105102;1292;97190;-84
2022/11/19 05:26:09;;;;;;;19.20;12.00;;;;;;;-0.55;63.77;99937.83;104958;1298;139210;-82
2022/11/19 05:28:40;;;;;;;18.00;12.00;;;;;;;-0.53;63.88;99942.71;105121;1297;93246;-84
2022/11/19 05:31:10;;;;;;;18.20;11.90;;;;;;;-0.55;64.00;99943.41;105007;1297;139233;-86
2022/11/19 05:33:41;;;;;;;18.90;12.00;;;;;;;-0.56;63.62;99946.70;105077;1292;108896;-83
2022/11/19 05:36:12;;;;;;;18.70;12.50;;;;;;;-0.59;63.81;99946.84;105087;1292;98060;-83
2022/11/19 05:38:42;;;;;;;19.90;12.90;;;;;;;-0.63;63.53;99950.45;104964;1299;139901;-83
2022/11/19 05:41:13;;;;;;;18.50;12.30;;;;;;;-0.74;63.95;99951.36;105061;1299;93356;-84
2022/11/19 05:43:44;;;;;;;18.30;12.70;;;;;;;-0.72;63.99;99954.02;104979;1292;138702;-83
2022/11/19 05:46:15;;;;;;;17.10;11.80;;;;;;;-0.71;64.00;99954.72;105114;1292;108542;-86
2022/11/19 05:48:45;;;;;;;18.80;12.80;;;;;;;-0.75;64.23;99959.20;105103;1284;98742;-83
2022/11/19 05:51:16;;;;;;;18.60;13.40;;;;;;;-0.73;64.20;99963.06;105085;1292;107293;-83
2022/11/19 05:53:47;;;;;;;19.30;12.60;;;;;;;-0.76;64.03;99965.29;105038;1297;92862;-82
2022/11/19 05:56:17;;;;;;;18.20;11.90;;;;;;;-0.77;64.48;99969.09;104962;1298;139190;-83
2022/11/19 05:58:48;;;;;;;17.90;12.10;;;;;;;-0.77;64.67;99975.21;105047;1294;108282;-83
2022/11/19 06:01:26;;;;;;;17.50;12.20;;;;;;;-0.77;65.02;99980.45;104984;1295;139788;-84
2022/11/19 06:03:57;;;;;;;18.10;12.20;;;;;;;-0.70;64.89;99984.55;105079;1292;107552;-83
2022/11/19 06:06:28;;;;;;;19.10;13.20;;;;;;;-0.67;64.74;99987.36;105084;1292;93224;-84
2022/11/19 06:08:59;;;;;;;19.70;12.60;;;;;;;-0.68;64.31;99986.49;104988;1295;139397;-85
2022/11/19 06:11:48;;;;;;;18.30;11.40;;;;;;;-0.71;64.63;99989.23;105093;1292;108425;-84
2022/11/19 06:14:21;;;;;;;17.80;11.60;;;;;;;-0.76;65.01;99994.91;104999;1294;139977;-83
2022/11/19 06:16:53;;;;;;;18.20;12.90;;;;;;;-0.79;65.08;99996.98;105081;1284;106999;-83
2022/11/19 06:19:25;;;;;;;18.50;12.90;;;;;;;-0.78;65.09;99998.72;104978;1291;140037;-84
2022/11/19 06:21:55;;;;;;;22.10;14.60;;;;;;;-0.75;65.20;100002.77;105133;1294;93269;-83
2022/11/19 06:24:26;;;;;;;18.70;14.10;;;;;;;-0.71;65.30;100009.11;105064;1284;108379;-83
2022/11/19 06:26:57;;;;;;;20.70;14.20;;;;;;;-0.66;65.02;100012.66;104991;1300;139559;-83
2022/11/19 06:29:27;;;;;;;21.70;15.00;;;;;;;-0.62;65.15;100014.96;105080;1294;107401;-83
2022/11/19 06:31:58;;;;;;;19.40;13.70;;;;;;;-0.60;64.40;100024.58;104991;1292;138914;-88
2022/11/19 06:34:29;;;;;;;20.60;14.40;;;;;;;-0.60;64.39;100030.52;105105;1292;94217;-87
2022/11/19 06:36:59;;;;;;;21.90;14.00;;;;;;;-0.63;64.16;100034.67;105003;1299;138159;-83
2022/11/19 06:39:30;;;;;;;19.40;12.50;;;;;;;-0.65;64.48;100040.04;105114;1292;98025;-83
2022/11/19 06:42:34;;;;;;;19.80;14.30;;;;;;;-0.65;64.80;100045.10;105078;1292;107517;-84
2022/11/19 06:44:52;;;;;;;20.10;13.70;;;;;;;-0.66;64.44;100048.05;104987;1298;138691;-83
2022/11/19 06:47:23;;;;;;;21.00;13.80;;;;;;;-0.71;64.20;100047.81;105125;1299;92872;-82
2022/11/19 06:49:54;;;;;;;20.00;13.80;;;;;;;-0.74;64.14;100048.30;104999;1291;142385;-88
2022/11/19 06:52:25;;;;;;;20.50;14.10;;;;;;;-0.74;64.13;100050.73;105085;1299;97953;-82
2022/11/19 06:54:55;;;;;;;18.80;12.40;;;;;;;-0.82;64.37;100058.11;104955;1297;139842;-82
2022/11/19 06:57:26;;;;;;;19.90;12.90;;;;;;;-0.86;64.55;100057.55;105110;1292;93060;-83
2022/11/19 06:59:57;;;;;;;19.50;13.80;;;;;;;-0.86;64.61;100061.03;105070;1292;93105;-83
2022/11/19 07:02:28;;;;;;;19.30;13.50;;;;;;;-0.82;64.34;100064.57;104957;1294;138655;-84
2022/11/19 07:04:58;;;;;;;20.10;13.60;;;;;;;-0.78;64.28;100063.92;105164;1299;98068;-83
2022/11/19 07:07:29;;;;;;;20.70;13.40;;;;;;;-0.79;64.13;100065.29;105000;1290;142333;-82
2022/11/19 07:10:08;;;;;;;19.60;12.90;;;;;;;-0.80;64.58;100064.75;104857;1300;93574;-83
2022/11/19 07:12:38;;;;;;;19.50;13.60;;;;;;;-0.78;64.24;100068.97;105076;1293;93070;-83
2022/11/19 07:15:10;;;;;;;20.20;14.00;;;;;;;-0.79;64.53;100065.83;104712;1286;137779;-83
2022/11/19 07:17:42;;;;;;;20.10;13.40;;;;;;;-0.84;64.37;100066.27;105105;1292;98062;-83
2022/11/19 07:20:13;;;;;;;20.40;13.40;;;;;;;-0.85;64.43;100062.42;104943;1293;138243;-84
2022/11/19 07:22:44;;;;;;;19.60;12.70;;;;;;;-0.85;64.02;100069.05;105091;1294;93260;-83
2022/11/19 07:25:15;;;;;;;21.10;13.80;;;;;;;-0.87;64.46;100069.72;105009;1284;139504;-83
2022/11/19 07:27:46;;;;;;;20.70;14.10;;;;;;;-0.84;64.63;100071.86;105115;1293;110533;-85
2022/11/19 07:30:17;;;;;;;21.70;14.30;;;;;;;-0.81;64.48;100072.06;105117;1292;98041;-83
2022/11/19 07:32:48;;;;;;;23.80;14.60;;;;;;;-0.82;64.16;100076.94;104974;1283;138723;-83
2022/11/19 07:35:19;;;;;;;25.10;15.40;;;;;;;-0.86;64.22;100080.02;105089;1284;93392;-83
2022/11/19 07:37:50;;;;;;;20.10;13.30;;;;;;;-0.85;65.11;100079.33;105007;1294;139338;-86
2022/11/19 07:40:20;;;;;;;20.40;14.30;;;;;;;-0.77;65.00;100081.36;105142;1292;108413;-85
2022/11/19 07:42:51;;;;;;;22.90;15.40;;;;;;;-0.72;64.84;100083.00;104989;1292;141091;-83
2022/11/19 07:45:23;;;;;;;21.70;14.60;;;;;;;-0.69;65.05;100086.90;105069;1284;107379;-84
2022/11/19 07:47:54;;;;;;;22.60;14.50;;;;;;;-0.63;65.51;100090.63;105055;1294;93306;-84
2022/11/19 07:50:27;;;;;;;22.90;15.10;;;;;;;-0.58;65.24;100087.20;104938;1287;140870;-83
2022/11/19 07:53:00;;;;;;;22.10;14.90;;;;;;;-0.49;65.13;100086.47;105059;1292;108490;-87
2022/11/19 07:55:31;;;;;;;21.30;15.20;;;;;;;-0.40;65.07;100085.02;104982;1298;139340;-85
2022/11/19 07:58:01;;;;;;;21.70;14.90;;;;;;;-0.32;65.00;100087.39;105086;1284;105424;-86
2022/11/19 08:00:32;;;;;;;23.20;15.50;;;;;;;-0.31;64.70;100086.52;105083;1294;93638;-85
2022/11/19 08:03:10;;;;;;;21.80;14.20;;;;;;;-0.36;64.66;100082.80;104995;1295;140653;-84
2022/11/19 08:05:43;;;;;;;21.10;14.20;;;;;;;-0.42;65.40;100082.38;105065;1293;108377;-84
2022/11/19 08:08:14;;;;;;;21.10;14.20;;;;;;;-0.35;65.53;100080.73;104943;1292;140507;-84
2022/11/19 08:10:44;;;;;;;21.80;14.20;;;;;;;-0.30;65.48;100081.13;105097;1292;107486;-84
2022/11/19 08:13:15;;;;;;;22.10;14.70;;;;;;;-0.30;65.28;100078.52;104974;1295;139075;-84
2022/11/19 08:15:46;;;;;;;22.10;15.30;;;;;;;-0.29;65.53;100079.77;105067;1294;92896;-84
2022/11/19 08:18:18;;;;;;;20.20;14.20;;;;;;;-0.27;65.73;100082.58;105086;1295;108389;-84
2022/11/19 08:21:05;;;;;;;20.40;13.70;;;;;;;-0.20;65.88;100093.13;104987;1294;140948;-83
2022/11/19 08:23:38;;;;;;;18.50;13.40;;;;;;;-0.16;64.64;100088.81;105100;1287;108084;-83
2022/11/19 08:26:09;;;;;;;17.10;11.90;;;;;;;-0.16;63.94;100089.50;104969;1287;141381;-83
2022/11/19 08:28:40;;;;;;;17.30;11.50;;;;;;;-0.11;63.41;100091.65;105098;1292;93256;-83
2022/11/19 08:31:11;;;;;;;18.60;12.40;;;;;;;-0.10;63.45;100095.15;104993;1292;138465;-84
2022/11/19 08:33:42;;;;;;;15.50;10.50;;;;;;;-0.15;63.11;100093.71;105115;1286;98136;-86
2022/11/19 08:36:12;;;;;;;16.90;11.70;;;;;;;-0.13;63.25;100096.52;105070;1291;107227;-86
2022/11/19 08:38:43;;;;;;;17.30;11.90;;;;;;;-0.10;62.91;100099.69;104922;1294;140441;-84
2022/11/19 08:44:02;;;;;;;19.90;13.60;;;;;;;0.02;63.38;100095.30;105022;1295;139691;-86
2022/11/19 08:46:33;;;;;;;17.80;12.30;;;;;;;0.11;63.13;100097.33;105141;1294;97244;-83
2022/11/19 08:49:04;;;;;;;17.60;11.70;;;;;;;0.18;62.63;100103.50;105014;1295;143722;-85
2022/11/19 08:51:35;;;;;;;16.90;12.20;;;;;;;0.23;61.46;100104.97;105097;1292;93274;-83
2022/11/19 08:54:06;;;;;;;24.50;17.30;;;;;;;0.35;61.84;100104.55;104744;1289;94415;-85
2022/11/19 08:56:36;;;;;;;17.40;13.20;;;;;;;0.46;61.89;100109.92;104997;1293;138497;-82
2022/11/19 08:59:07;;;;;;;19.10;13.10;;;;;;;0.46;61.46;100112.54;105070;1290;98126;-83
2022/11/19 09:01:39;;;;;;;18.30;12.50;;;;;;;0.54;61.39;100113.31;104893;1286;138365;-85
2022/11/19 09:04:15;;;;;;;17.40;12.00;;;;;;;0.57;60.79;100112.98;105092;1278;93152;-85
2022/11/19 09:06:46;;;;;;;18.30;11.50;;;;;;;0.53;60.81;100110.32;105024;1287;93367;-82
2022/11/19 09:09:17;;;;;;;16.50;11.20;;;;;;;0.57;60.72;100110.36;105041;1284;108567;-85
2022/11/19 09:11:47;;;;;;;16.80;11.50;;;;;;;0.55;60.32;100110.52;105111;1277;97967;-82
2022/11/19 09:14:18;;;;;;;18.40;12.80;;;;;;;0.55;60.53;100115.23;104981;1293;140836;-82
2022/11/19 09:16:49;;;;;;;19.20;13.30;;;;;;;0.57;60.29;100115.78;105026;1292;93199;-81
2022/11/19 09:19:20;;;;;;;27.70;18.10;;;;;;;0.54;60.84;100121.01;104969;1294;138035;-82
2022/11/19 09:21:51;;;;;;;29.00;19.10;;;;;;;0.48;60.56;100122.34;105104;1293;108246;-80
2022/11/19 09:24:22;;;;;;;19.10;12.80;;;;;;;0.37;61.06;100123.45;105078;1285;97275;-79
2022/11/19 09:26:52;;;;;;;20.20;13.70;;;;;;;0.33;61.58;100123.23;104935;1294;138749;-80
2022/11/19 09:29:27;;;;;;;18.40;12.80;;;;;;;0.39;61.42;100124.35;105079;1292;94177;-80
2022/11/19 09:31:58;;;;;;;18.10;12.40;;;;;;;0.40;60.60;100120.34;104974;1280;138748;-84
2022/11/19 09:34:29;;;;;;;19.10;12.70;;;;;;;0.47;61.27;100117.27;105060;1291;108678;-83
2022/11/19 09:37:00;;;;;;;19.30;12.50;;;;;;;0.53;61.00;100115.56;104959;1294;138991;-81
2022/11/19 09:39:30;;;;;;;18.50;12.00;;;;;;;0.55;60.47;100113.68;105058;1299;107441;-82
2022/11/19 09:42:13;;;;;;;18.90;12.70;;;;;;;0.55;59.78;100113.67;105004;1294;93236;-82
2022/11/19 09:45:08;;;;;;;23.70;15.00;;;;;;;0.51;59.87;100113.98;104972;1292;138311;-83
2022/11/19 09:47:54;;;;;;;19.40;12.50;;;;;;;0.49;60.30;100112.58;105135;1292;108200;-81
2022/11/19 09:50:28;;;;;;;18.50;13.20;;;;;;;0.44;59.63;100109.73;104947;1275;139712;-81
2022/11/19 09:53:02;;;;;;;17.10;12.50;;;;;;;0.38;59.81;100116.30;105048;1278;107567;-80
2022/11/19 09:55:35;;;;;;;19.30;13.40;;;;;;;0.40;60.08;100123.83;104906;1299;138637;-80
2022/11/19 09:58:12;;;;;;;19.30;13.30;;;;;;;0.41;59.24;100121.05;105083;1287;93415;-83
2022/11/19 10:00:45;;;;;;;20.80;13.50;;;;;;;0.43;59.50;100121.23;105012;1284;108949;-82
2022/11/19 10:03:20;;;;;;;21.10;14.60;;;;;;;0.47;59.70;100121.63;105019;1278;138004;-80
2022/11/19 10:06:06;;;;;;;27.20;17.20;;;;;;;0.52;59.71;100120.80;105102;1286;107866;-81
2022/11/19 10:08:50;;;;;;;20.90;14.30;;;;;;;0.56;59.13;100121.36;104978;1294;138727;-82
2022/11/19 10:11:33;;;;;;;19.60;13.10;;;;;;;0.60;59.22;100121.41;105122;1294;92857;-82
2022/11/19 10:14:17;;;;;;;19.70;13.70;;;;;;;0.61;59.01;100120.02;104980;1292;138997;-84
2022/11/19 10:16:57;;;;;;;21.30;14.80;;;;;;;0.62;58.88;100111.98;105128;1284;98023;-82
2022/11/19 10:19:46;;;;;;;18.40;13.00;;;;;;;0.63;59.03;100108.86;105018;1294;140811;-84
2022/11/19 10:22:22;;;;;;;21.10;14.20;;;;;;;0.56;59.16;100111.59;105020;1292;92883;-86
2022/11/19 10:24:59;;;;;;;21.00;13.90;;;;;;;0.48;59.11;100111.51;105006;1284;138949;-85
2022/11/19 10:27:37;;;;;;;18.00;12.50;;;;;;;0.51;59.73;100111.19;105086;1283;109063;-85
2022/11/19 10:30:16;;;;;;;19.80;14.10;;;;;;;0.58;59.57;100115.63;105089;1297;98108;-84
2022/11/19 10:32:54;;;;;;;20.90;14.40;;;;;;;0.58;59.04;100118.60;104893;1294;138816;-83
2022/11/19 10:35:28;;;;;;;21.50;14.70;;;;;;;0.49;58.99;100119.02;104943;1294;93059;-83
2022/11/19 10:38:01;;;;;;;22.30;15.30;;;;;;;0.38;59.77;100119.98;104901;1297;139500;-84
2022/11/19 10:40:38;;;;;;;24.60;16.80;;;;;;;0.38;59.82;100126.60;105090;1291;108850;-83
2022/11/19 10:43:18;;;;;;;22.80;15.60;;;;;;;0.38;59.96;100127.30;104970;1291;139466;-87
2022/11/19 10:45:53;;;;;;;25.80;16.70;;;;;;;0.28;59.90;100123.01;105090;1294;109053;-84
2022/11/19 10:48:25;;;;;;;35.90;22.50;;;;;;;0.20;60.35;100122.21;105105;1297;94136;-83
2022/11/19 10:50:59;;;;;;;28.00;18.70;;;;;;;0.20;60.97;100124.14;104420;1290;139923;-84
2022/11/19 10:53:35;;;;;;;22.90;16.60;;;;;;;0.24;60.74;100123.13;104649;1293;108566;-88
2022/11/19 10:56:12;;;;;;;24.60;16.40;;;;;;;0.24;60.42;100125.40;104600;1293;139625;-89
2022/11/19 10:58:48;;;;;;;23.20;16.90;;;;;;;0.27;60.81;100128.56;104971;1284;108404;-82
2022/11/19 11:01:28;;;;;;;24.30;16.60;;;;;;;0.30;60.99;100128.09;104822;1284;139681;-84
2022/11/19 11:04:07;;;;;;;19.10;12.60;;;;;;;0.15;60.45;100133.51;104866;1278;94235;-82
2022/11/19 11:06:53;;;;;;;27.00;17.50;;;;;;;0.06;60.44;100139.86;104903;1292;108202;-86
2022/11/19 11:09:32;;;;;;;24.90;16.70;;;;;;;0.05;61.51;100138.98;104737;1291;97291;-84
2022/11/19 11:15:17;;;;;;;22.70;15.10;;;;;;;0.20;61.13;100142.80;104324;1298;138967;-84
2022/11/19 11:17:59;;;;;;;20.90;14.30;;;;;;;0.22;60.69;100142.67;104776;1284;94216;-85
2022/11/19 11:20:31;;;;;;;19.70;13.50;;;;;;;0.19;60.68;100139.66;104721;1284;138895;-82
2022/11/19 11:23:09;;;;;;;20.10;13.30;;;;;;;0.23;61.05;100143.55;104812;1292;98336;-81
2022/11/19 11:25:50;;;;;;;18.70;12.30;;;;;;;0.29;60.95;100137.52;104687;1271;139765;-83
2022/11/19 11:28:22;;;;;;;14.90;10.00;;;;;;;0.34;59.98;100134.24;104898;1291;94496;-83
2022/11/19 11:30:57;;;;;;;15.30;10.40;;;;;;;0.36;58.88;100141.25;104898;1280;140066;-83
2022/11/19 11:33:31;;;;;;;15.50;10.10;;;;;;;0.36;59.20;100140.21;105039;1291;108381;-83
2022/11/19 11:36:06;;;;;;;17.00;11.00;;;;;;;0.37;59.25;100138.30;105075;1294;98629;-84
2022/11/19 11:38:44;;;;;;;18.40;11.60;;;;;;;0.41;58.91;100136.94;104978;1285;140086;-84
2022/11/19 11:41:17;;;;;;;18.60;11.90;;;;;;;0.40;58.69;100139.73;105045;1297;93242;-84
2022/11/19 11:44:17;;;;;;;18.50;12.10;;;;;;;0.35;58.78;100138.09;104952;1293;138019;-83
2022/11/19 11:46:51;;;;;;;22.00;13.80;;;;;;;0.23;58.40;100140.23;105061;1299;108547;-84
2022/11/19 11:49:31;;;;;;;19.90;12.10;;;;;;;0.17;58.68;100140.67;104963;1292;140260;-84
2022/11/19 11:52:22;;;;;;;18.20;11.10;;;;;;;0.12;57.47;100140.98;105060;1294;108054;-84
2022/11/19 11:54:58;;;;;;;15.00;9.50;;;;;;;0.04;57.73;100142.45;105031;1294;93281;-83